Time;durP1;ratioP1;P1;durP2;ratioP2;P2;SDS_P1;SDS_P2;PMS_P1;PMS_P2;Temp;Humidity;BMP_temperature;BMP_pressure;BME280_temperature;BME280_humidity;BME280_pressure;Samples;Min_cycle;Max_cycle;Signal;HPM_P1;HPM_P2
2022/08/07 00:00:51;;;;;;;3.17;2.83;;;;;;;;;;5113133;28;20449;-63
2022/08/07 00:03:18;;;;;;;3.43;2.63;;;;;;;;;;5113133;28;20479;-63
2022/08/07 00:05:45;;;;;;;4.07;3.10;;;;;;;;;;5113279;28;20492;-63
2022/08/07 00:08:12;;;;;;;5.37;2.90;;;;;;;;;;5113268;28;20806;-63
2022/08/07 00:10:40;;;;;;;4.63;3.23;;;;;;;;;;5113057;28;20450;-63
2022/08/07 00:13:08;;;;;;;2.77;2.50;;;;;;;;;;5113169;28;20424;-63
2022/08/07 00:15:37;;;;;;;3.67;3.10;;;;;;;;;;5113042;28;20445;-63
2022/08/07 00:18:04;;;;;;;3.70;3.30;;;;;;;;;;5113015;28;20940;-63
2022/08/07 00:20:31;;;;;;;5.07;2.60;;;;;;;;;;5113171;28;20449;-63
2022/08/07 00:22:58;;;;;;;2.90;2.70;;;;;;;;;;5113059;28;20446;-63
2022/08/07 00:25:25;;;;;;;2.80;2.60;;;;;;;;;;5113005;28;20420;-62
2022/08/07 00:27:52;;;;;;;3.07;2.57;;;;;;;;;;5112974;28;20420;-62
2022/08/07 00:30:19;;;;;;;2.70;2.50;;;;;;;;;;5112927;28;20420;-62
2022/08/07 00:32:49;;;;;;;3.63;2.33;;;;;;;;;;5113025;28;20819;-63
2022/08/07 00:35:16;;;;;;;3.93;2.77;;;;;;;;;;5112948;28;20416;-62
2022/08/07 00:37:43;;;;;;;2.53;2.30;;;;;;;;;;5113015;28;20449;-62
2022/08/07 00:40:10;;;;;;;2.67;2.43;;;;;;;;;;5112863;28;20448;-62
2022/08/07 00:42:37;;;;;;;2.83;2.33;;;;;;;;;;5112767;28;20420;-63
2022/08/07 00:45:04;;;;;;;3.87;2.40;;;;;;;;;;5112946;28;20422;-62
2022/08/07 00:47:31;;;;;;;4.03;2.70;;;;;;;;;;5112730;28;20478;-63
2022/08/07 00:50:00;;;;;;;2.43;2.23;;;;;;;;;;5112974;28;20772;-63
2022/08/07 00:52:26;;;;;;;4.60;2.50;;;;;;;;;;5112727;28;20481;-63
2022/08/07 00:54:53;;;;;;;2.30;2.10;;;;;;;;;;5113557;28;20420;-63
2022/08/07 00:57:21;;;;;;;3.30;2.30;;;;;;;;;;5116346;28;20420;-63
2022/08/07 00:59:48;;;;;;;2.60;2.40;;;;;;;;;;5116329;28;20955;-63
2022/08/07 01:02:15;;;;;;;3.97;2.20;;;;;;;;;;5116450;28;20416;-63
2022/08/07 01:04:42;;;;;;;2.43;2.23;;;;;;;;;;5116262;28;20458;-63
2022/08/07 01:07:10;;;;;;;2.47;2.27;;;;;;;;;;5116287;28;20441;-63
2022/08/07 01:09:37;;;;;;;3.07;2.23;;;;;;;;;;5116182;28;20851;-63
2022/08/07 01:12:05;;;;;;;2.60;2.40;;;;;;;;;;5116019;28;20478;-63
2022/08/07 01:14:32;;;;;;;2.83;2.63;;;;;;;;;;5116190;28;20420;-63
2022/08/07 01:16:59;;;;;;;2.70;2.30;;;;;;;;;;5116211;28;20449;-63
2022/08/07 01:19:27;;;;;;;2.67;2.47;;;;;;;;;;5115971;28;20446;-63
2022/08/07 01:21:56;;;;;;;2.40;2.20;;;;;;;;;;5115907;28;20548;-63
2022/08/07 01:24:23;;;;;;;8.33;3.00;;;;;;;;;;5115834;28;20427;-63
2022/08/07 01:26:50;;;;;;;3.00;2.13;;;;;;;;;;5116046;28;20426;-63
2022/08/07 01:29:18;;;;;;;2.43;2.17;;;;;;;;;;5115928;28;20427;-63
2022/08/07 01:31:45;;;;;;;3.13;2.50;;;;;;;;;;5115773;28;20481;-63
2022/08/07 01:34:12;;;;;;;3.40;2.07;;;;;;;;;;5115763;28;20792;-63
2022/08/07 01:36:40;;;;;;;6.30;2.33;;;;;;;;;;5115640;28;20441;-63
2022/08/07 01:39:08;;;;;;;5.60;2.10;;;;;;;;;;5115539;28;20959;-63
2022/08/07 01:41:35;;;;;;;2.50;2.30;;;;;;;;;;5115730;28;20490;-63
2022/08/07 01:44:03;;;;;;;2.33;2.13;;;;;;;;;;5115472;28;20502;-63
2022/08/07 01:46:30;;;;;;;2.40;2.20;;;;;;;;;;5115364;28;20416;-64
2022/08/07 01:48:56;;;;;;;3.30;2.53;;;;;;;;;;5115425;28;20477;-63
2022/08/07 01:51:24;;;;;;;4.47;2.13;;;;;;;;;;5115257;28;20470;-63
2022/08/07 01:53:53;;;;;;;3.00;2.37;;;;;;;;;;5115293;28;20915;-63
2022/08/07 01:56:25;;;;;;;2.30;2.10;;;;;;;;;;5115395;28;20424;-63
2022/08/07 01:58:53;;;;;;;2.83;2.50;;;;;;;;;;5115376;28;20544;-63
2022/08/07 02:01:23;;;;;;;3.00;2.80;;;;;;;;;;5115209;28;20428;-63
2022/08/07 02:03:54;;;;;;;8.10;2.50;;;;;;;;;;5115065;28;20461;-63
2022/08/07 02:06:21;;;;;;;3.03;2.83;;;;;;;;;;5115016;28;20445;-63
2022/08/07 02:08:49;;;;;;;2.33;2.23;;;;;;;;;;5115108;28;20426;-62
2022/08/07 02:11:16;;;;;;;2.63;2.40;;;;;;;;;;5115017;28;20444;-62
2022/08/07 02:13:45;;;;;;;2.13;1.90;;;;;;;;;;5114925;28;20420;-63
2022/08/07 02:16:13;;;;;;;2.13;1.97;;;;;;;;;;5114887;28;20420;-63
2022/08/07 02:18:40;;;;;;;2.17;2.07;;;;;;;;;;5114697;28;20929;-63
2022/08/07 02:21:08;;;;;;;1.90;1.80;;;;;;;;;;5114776;28;20878;-63
2022/08/07 02:23:37;;;;;;;3.83;2.27;;;;;;;;;;5114649;28;20452;-62
2022/08/07 02:26:04;;;;;;;3.00;2.63;;;;;;;;;;5114624;28;20516;-62
2022/08/07 02:28:31;;;;;;;2.10;2.00;;;;;;;;;;5114662;28;20426;-63
2022/08/07 02:31:02;;;;;;;2.83;2.63;;;;;;;;;;5114492;28;20536;-63
2022/08/07 02:33:29;;;;;;;2.90;2.53;;;;;;;;;;5114760;28;20423;-62
2022/08/07 02:35:56;;;;;;;2.30;2.20;;;;;;;;;;5114364;28;20945;-62
2022/08/07 02:38:26;;;;;;;3.77;2.57;;;;;;;;;;5114549;28;20448;-62
2022/08/07 02:40:53;;;;;;;2.60;2.40;;;;;;;;;;5114488;28;20416;-62
2022/08/07 02:43:21;;;;;;;2.57;2.10;;;;;;;;;;5114396;28;20452;-62
2022/08/07 02:45:48;;;;;;;2.20;2.00;;;;;;;;;;5114188;28;20776;-63
2022/08/07 02:48:16;;;;;;;2.80;2.60;;;;;;;;;;5114167;28;20736;-63
2022/08/07 02:50:44;;;;;;;2.90;2.70;;;;;;;;;;5114367;28;20983;-62
2022/08/07 02:53:13;;;;;;;2.53;2.10;;;;;;;;;;5114002;28;20983;-62
2022/08/07 02:55:46;;;;;;;2.73;2.53;;;;;;;;;;5114143;28;20426;-62
2022/08/07 02:58:15;;;;;;;3.20;2.33;;;;;;;;;;5113942;28;20536;-63
2022/08/07 03:00:42;;;;;;;2.20;2.00;;;;;;;;;;5114143;28;20446;-63
2022/08/07 03:03:10;;;;;;;2.43;2.33;;;;;;;;;;5113897;28;20943;-62
2022/08/07 03:05:39;;;;;;;2.73;2.30;;;;;;;;;;5113955;28;20446;-62
2022/08/07 03:08:07;;;;;;;4.13;2.00;;;;;;;;;;5113920;28;20426;-63
2022/08/07 03:10:34;;;;;;;2.23;2.03;;;;;;;;;;5113748;28;20477;-62
2022/08/07 03:13:02;;;;;;;2.77;2.30;;;;;;;;;;5113924;28;20455;-62
2022/08/07 03:15:29;;;;;;;2.53;2.33;;;;;;;;;;5113927;28;20449;-63
2022/08/07 03:17:56;;;;;;;3.27;2.17;;;;;;;;;;5113646;28;20459;-62
2022/08/07 03:20:24;;;;;;;3.50;2.23;;;;;;;;;;5113773;28;20452;-63
2022/08/07 03:22:53;;;;;;;2.50;2.30;;;;;;;;;;5113646;28;20459;-63
2022/08/07 03:25:22;;;;;;;2.47;2.37;;;;;;;;;;5113543;28;20420;-63
2022/08/07 03:27:50;;;;;;;2.03;1.83;;;;;;;;;;5113726;28;20424;-63
2022/08/07 03:30:17;;;;;;;2.60;2.40;;;;;;;;;;5113635;28;20457;-63
2022/08/07 03:32:46;;;;;;;2.73;2.53;;;;;;;;;;5113790;28;20485;-63
2022/08/07 03:35:15;;;;;;;8.10;3.23;;;;;;;;;;5113536;28;20852;-62
2022/08/07 03:37:43;;;;;;;2.60;2.40;;;;;;;;;;5113407;28;20808;-63
2022/08/07 03:40:12;;;;;;;3.20;2.47;;;;;;;;;;5113612;28;20519;-62
2022/08/07 03:42:40;;;;;;;2.63;2.43;;;;;;;;;;5113482;28;20502;-63
2022/08/07 03:45:07;;;;;;;3.30;2.60;;;;;;;;;;5113440;28;20515;-63
2022/08/07 03:47:34;;;;;;;3.33;2.80;;;;;;;;;;5113202;28;20879;-62
2022/08/07 03:50:01;;;;;;;2.67;2.33;;;;;;;;;;5113286;28;20467;-62
2022/08/07 03:52:29;;;;;;;2.80;2.20;;;;;;;;;;5113138;28;20499;-63
2022/08/07 03:54:57;;;;;;;2.87;2.67;;;;;;;;;;5113442;28;20449;-63
2022/08/07 03:57:26;;;;;;;2.63;2.43;;;;;;;;;;5113320;28;20445;-63
2022/08/07 03:59:53;;;;;;;2.70;2.50;;;;;;;;;;5113299;28;20452;-62
2022/08/07 04:02:20;;;;;;;6.23;2.57;;;;;;;;;;5113250;28;20790;-62
2022/08/07 04:04:47;;;;;;;2.63;2.50;;;;;;;;;;5113016;28;20950;-63
2022/08/07 04:07:16;;;;;;;3.03;2.33;;;;;;;;;;5113361;28;20471;-63
2022/08/07 04:09:43;;;;;;;3.10;2.60;;;;;;;;;;5113298;28;20536;-63
2022/08/07 04:12:10;;;;;;;3.30;2.87;;;;;;;;;;5113158;28;20444;-63
2022/08/07 04:14:39;;;;;;;2.60;2.40;;;;;;;;;;5113176;28;20446;-63
2022/08/07 04:17:06;;;;;;;2.30;2.10;;;;;;;;;;5113087;28;20445;-62
2022/08/07 04:19:33;;;;;;;4.30;2.60;;;;;;;;;;5112975;28;20572;-63
2022/08/07 04:22:00;;;;;;;2.50;2.30;;;;;;;;;;5113232;28;20537;-63
2022/08/07 04:24:27;;;;;;;5.17;2.60;;;;;;;;;;5113211;28;20430;-63
2022/08/07 04:26:56;;;;;;;2.87;2.67;;;;;;;;;;5113020;28;20445;-62
2022/08/07 04:29:23;;;;;;;2.70;2.50;;;;;;;;;;5112969;28;20787;-63
2022/08/07 04:31:52;;;;;;;3.10;2.63;;;;;;;;;;5116765;28;20785;-62
2022/08/07 04:34:19;;;;;;;2.83;2.60;;;;;;;;;;5117402;28;20442;-63
2022/08/07 04:36:46;;;;;;;2.90;2.70;;;;;;;;;;5116928;28;20445;-63
2022/08/07 04:39:13;;;;;;;4.30;2.80;;;;;;;;;;5116915;28;20427;-63
2022/08/07 04:41:40;;;;;;;3.20;2.90;;;;;;;;;;5116795;28;20445;-62
2022/08/07 04:44:08;;;;;;;3.60;3.30;;;;;;;;;;5116704;28;20447;-62
2022/08/07 04:46:38;;;;;;;4.20;3.90;;;;;;;;;;5116357;28;20456;-63
2022/08/07 04:49:11;;;;;;;4.00;3.73;;;;;;;;;;5116849;28;20774;-63
2022/08/07 04:51:48;;;;;;;3.37;3.17;;;;;;;;;;5116686;28;20442;-63
2022/08/07 04:54:18;;;;;;;3.00;2.80;;;;;;;;;;5116586;28;20782;-63
2022/08/07 04:56:47;;;;;;;2.90;2.70;;;;;;;;;;5116492;28;20453;-63
2022/08/07 04:59:17;;;;;;;3.40;2.70;;;;;;;;;;5116622;28;20449;-63
2022/08/07 05:01:48;;;;;;;2.43;2.23;;;;;;;;;;5116609;28;20790;-63
2022/08/07 05:04:19;;;;;;;3.27;3.07;;;;;;;;;;5116506;28;20514;-63
2022/08/07 05:06:50;;;;;;;2.70;2.30;;;;;;;;;;5116418;28;20519;-62
2022/08/07 05:09:20;;;;;;;5.80;2.80;;;;;;;;;;5116264;28;20438;-63
2022/08/07 05:11:51;;;;;;;3.13;2.93;;;;;;;;;;5116411;28;20901;-63
2022/08/07 05:14:19;;;;;;;3.30;3.10;;;;;;;;;;5116267;28;20467;-63
2022/08/07 05:16:47;;;;;;;2.37;2.27;;;;;;;;;;5116150;28;20899;-63
2022/08/07 05:19:16;;;;;;;2.50;2.27;;;;;;;;;;5116088;28;20452;-63
2022/08/07 05:21:47;;;;;;;3.00;2.40;;;;;;;;;;5115966;28;20442;-63
2022/08/07 05:24:16;;;;;;;2.60;2.50;;;;;;;;;;5115872;28;20948;-62
2022/08/07 05:26:44;;;;;;;3.70;2.53;;;;;;;;;;5115983;28;20428;-62
2022/08/07 05:29:11;;;;;;;3.37;2.50;;;;;;;;;;5115893;28;20416;-63
2022/08/07 05:31:39;;;;;;;2.33;2.13;;;;;;;;;;5115762;28;20416;-62
2022/08/07 05:34:08;;;;;;;4.33;2.80;;;;;;;;;;5115606;28;20485;-63
2022/08/07 05:36:37;;;;;;;1.97;1.87;;;;;;;;;;5115632;28;20506;-63
2022/08/07 05:39:05;;;;;;;3.17;2.80;;;;;;;;;;5115855;28;20427;-63
2022/08/07 05:41:33;;;;;;;2.67;2.33;;;;;;;;;;5115381;28;20456;-63
2022/08/07 05:44:00;;;;;;;2.10;1.80;;;;;;;;;;5115524;28;20449;-62
2022/08/07 05:46:27;;;;;;;2.30;2.10;;;;;;;;;;5115471;28;20446;-64
2022/08/07 05:48:54;;;;;;;2.10;2.00;;;;;;;;;;5115430;28;20773;-63
2022/08/07 05:51:22;;;;;;;1.87;1.77;;;;;;;;;;5115613;28;20801;-63
2022/08/07 05:53:49;;;;;;;2.00;1.90;;;;;;;;;;5115398;28;20464;-63
2022/08/07 05:56:19;;;;;;;2.10;1.90;;;;;;;;;;5115413;28;20540;-63
2022/08/07 05:58:47;;;;;;;1.90;1.80;;;;;;;;;;5115327;28;20424;-63
2022/08/07 06:01:14;;;;;;;3.43;2.03;;;;;;;;;;5115171;28;20493;-63
2022/08/07 06:03:44;;;;;;;5.13;2.40;;;;;;;;;;5115027;28;21066;-63
2022/08/07 06:06:11;;;;;;;2.70;1.90;;;;;;;;;;5115290;28;20452;-63
2022/08/07 06:08:40;;;;;;;3.43;1.60;;;;;;;;;;5115200;28;20506;-62
2022/08/07 06:11:07;;;;;;;6.33;2.00;;;;;;;;;;5115103;28;20887;-63
2022/08/07 06:13:36;;;;;;;1.90;1.70;;;;;;;;;;5114842;28;20480;-63
2022/08/07 06:16:03;;;;;;;3.70;1.50;;;;;;;;;;5114925;28;20446;-63
2022/08/07 06:18:32;;;;;;;2.47;1.93;;;;;;;;;;5115055;28;20532;-63
2022/08/07 06:20:59;;;;;;;3.10;1.60;;;;;;;;;;5114723;28;20995;-63
2022/08/07 06:23:26;;;;;;;2.07;1.87;;;;;;;;;;5114863;28;20449;-63
2022/08/07 06:25:53;;;;;;;2.43;1.57;;;;;;;;;;5114798;28;20438;-63
2022/08/07 06:28:20;;;;;;;1.97;1.67;;;;;;;;;;5114713;28;20424;-63
2022/08/07 06:30:49;;;;;;;1.93;1.60;;;;;;;;;;5114521;28;20441;-63
2022/08/07 06:33:16;;;;;;;1.87;1.77;;;;;;;;;;5114606;28;20488;-63
2022/08/07 06:35:43;;;;;;;7.53;1.77;;;;;;;;;;5114607;28;20426;-63
2022/08/07 06:38:09;;;;;;;3.33;1.80;;;;;;;;;;5114523;28;20450;-63
2022/08/07 06:40:39;;;;;;;3.03;2.20;;;;;;;;;;5114445;28;20882;-63
2022/08/07 06:43:09;;;;;;;1.70;1.60;;;;;;;;;;5114575;28;20891;-63
2022/08/07 06:45:36;;;;;;;2.40;2.17;;;;;;;;;;5114513;28;20450;-63
2022/08/07 06:48:05;;;;;;;2.20;2.00;;;;;;;;;;5114151;28;20840;-63
2022/08/07 06:50:33;;;;;;;3.00;1.83;;;;;;;;;;5114337;28;20445;-63
2022/08/07 06:53:01;;;;;;;2.13;1.60;;;;;;;;;;5113450;28;20469;-63
2022/08/07 06:55:29;;;;;;;2.10;1.90;;;;;;;;;;5114168;28;20532;-63
2022/08/07 06:57:58;;;;;;;2.63;1.57;;;;;;;;;;5113985;28;20446;-63
2022/08/07 07:00:26;;;;;;;2.20;1.90;;;;;;;;;;5114325;28;20490;-63
2022/08/07 07:02:53;;;;;;;2.03;1.93;;;;;;;;;;5113981;28;21030;-63
2022/08/07 07:05:22;;;;;;;2.77;1.70;;;;;;;;;;5114043;28;20543;-63
2022/08/07 07:07:49;;;;;;;3.00;1.83;;;;;;;;;;5113904;28;20450;-63
2022/08/07 07:10:18;;;;;;;2.03;1.87;;;;;;;;;;5113750;28;20445;-63
2022/08/07 07:12:49;;;;;;;1.63;1.50;;;;;;;;;;5113965;28;20449;-63
2022/08/07 07:15:18;;;;;;;1.60;1.50;;;;;;;;;;5113779;28;20448;-63
2022/08/07 07:17:48;;;;;;;2.13;1.47;;;;;;;;;;5113686;28;20940;-63
2022/08/07 07:20:17;;;;;;;2.63;1.57;;;;;;;;;;5113912;28;20576;-63
2022/08/07 07:22:46;;;;;;;2.23;1.70;;;;;;;;;;5113661;28;20441;-63
2022/08/07 07:25:14;;;;;;;2.80;1.83;;;;;;;;;;5113795;28;20854;-63
2022/08/07 07:27:43;;;;;;;3.20;1.50;;;;;;;;;;5113710;28;20880;-63
2022/08/07 07:30:12;;;;;;;1.50;1.33;;;;;;;;;;5113653;28;20442;-63
2022/08/07 07:32:39;;;;;;;2.33;1.57;;;;;;;;;;5113463;28;20524;-63
2022/08/07 07:35:07;;;;;;;6.03;1.40;;;;;;;;;;5113515;28;20450;-63
2022/08/07 07:37:34;;;;;;;3.27;1.67;;;;;;;;;;5113376;28;20441;-63
2022/08/07 07:40:04;;;;;;;6.60;1.93;;;;;;;;;;5113463;28;20540;-63
2022/08/07 07:42:33;;;;;;;2.73;1.50;;;;;;;;;;5113317;28;20961;-63
2022/08/07 07:45:01;;;;;;;1.50;1.33;;;;;;;;;;5113351;28;20453;-63
2022/08/07 07:47:29;;;;;;;2.70;2.13;;;;;;;;;;5113453;28;21034;-63
2022/08/07 07:49:57;;;;;;;1.47;1.37;;;;;;;;;;5113235;28;20452;-63
2022/08/07 07:52:25;;;;;;;4.83;1.80;;;;;;;;;;5113315;28;20448;-64
2022/08/07 07:54:52;;;;;;;3.73;1.70;;;;;;;;;;5113295;28;20481;-63
2022/08/07 07:57:24;;;;;;;2.07;1.60;;;;;;;;;;5113239;28;20545;-63
2022/08/07 07:59:52;;;;;;;1.63;1.37;;;;;;;;;;5113192;28;20575;-63
2022/08/07 08:02:19;;;;;;;7.37;1.43;;;;;;;;;;5113015;28;20856;-63
2022/08/07 08:04:47;;;;;;;1.87;1.40;;;;;;;;;;5115555;28;20465;-63
2022/08/07 08:07:14;;;;;;;1.77;1.40;;;;;;;;;;5117515;28;20884;-63
2022/08/07 08:09:41;;;;;;;4.30;1.20;;;;;;;;;;5117341;28;20452;-63
2022/08/07 08:12:09;;;;;;;1.50;1.20;;;;;;;;;;5117363;28;20533;-63
2022/08/07 08:14:38;;;;;;;1.30;1.20;;;;;;;;;;5117143;28;20476;-63
2022/08/07 08:17:05;;;;;;;1.50;1.20;;;;;;;;;;5117652;28;20438;-63
2022/08/07 08:19:34;;;;;;;2.07;1.33;;;;;;;;;;5117381;28;20494;-63
2022/08/07 08:27:41;;;;;;;1.47;1.37;;;;;;;;;;5068439;28;20430;-63
2022/08/07 08:30:10;;;;;;;1.60;1.30;;;;;;;;;;5117091;28;20442;-63
2022/08/07 08:32:40;;;;;;;1.87;1.57;;;;;;;;;;5117018;28;20494;-63
2022/08/07 08:35:08;;;;;;;1.90;1.63;;;;;;;;;;5118055;28;20607;-63
2022/08/07 08:37:36;;;;;;;1.90;1.30;;;;;;;;;;5116718;28;20925;-63
2022/08/07 08:40:07;;;;;;;1.70;1.43;;;;;;;;;;5116983;28;20450;-63
2022/08/07 08:42:37;;;;;;;3.53;1.57;;;;;;;;;;5116850;28;20532;-63
2022/08/07 08:45:10;;;;;;;1.60;1.00;;;;;;;;;;5116873;28;20449;-63
2022/08/07 08:47:44;;;;;;;1.73;1.40;;;;;;;;;;5116576;28;20473;-63
2022/08/07 08:50:13;;;;;;;3.93;1.47;;;;;;;;;;5116517;28;20861;-63
2022/08/07 08:52:46;;;;;;;3.40;1.20;;;;;;;;;;5116709;28;20449;-63
2022/08/07 08:55:15;;;;;;;1.97;1.27;;;;;;;;;;5116534;28;20487;-63
2022/08/07 08:57:44;;;;;;;1.93;1.00;;;;;;;;;;5116477;28;20548;-63
2022/08/07 09:00:12;;;;;;;2.00;1.40;;;;;;;;;;5116462;28;20536;-63
2022/08/07 09:02:47;;;;;;;1.47;1.20;;;;;;;;;;5116154;28;20457;-63
2022/08/07 09:05:20;;;;;;;1.90;1.53;;;;;;;;;;5116530;28;20460;-63
2022/08/07 09:07:49;;;;;;;2.40;1.40;;;;;;;;;;5116359;28;20456;-63
2022/08/07 09:10:17;;;;;;;1.83;1.73;;;;;;;;;;5116368;28;20461;-63
2022/08/07 09:12:48;;;;;;;1.67;1.30;;;;;;;;;;5116116;28;21003;-63
2022/08/07 09:15:25;;;;;;;3.63;1.20;;;;;;;;;;5115289;28;20564;-63
2022/08/07 09:18:02;;;;;;;1.50;1.40;;;;;;;;;;5116317;28;20517;-63
2022/08/07 09:20:31;;;;;;;2.13;1.20;;;;;;;;;;5116176;28;20536;-63
2022/08/07 09:23:03;;;;;;;2.70;1.50;;;;;;;;;;5115845;28;20933;-63
2022/08/07 09:25:35;;;;;;;3.03;1.53;;;;;;;;;;5115797;28;20453;-64
2022/08/07 09:28:04;;;;;;;4.90;1.60;;;;;;;;;;5116053;28;20452;-63
2022/08/07 09:30:37;;;;;;;4.13;1.33;;;;;;;;;;5115749;28;20449;-63
2022/08/07 09:33:13;;;;;;;2.10;1.20;;;;;;;;;;5115941;28;20796;-63
2022/08/07 09:35:45;;;;;;;2.57;1.37;;;;;;;;;;5115713;28;20460;-63
2022/08/07 09:38:16;;;;;;;1.97;1.77;;;;;;;;;;5115548;28;20450;-63
2022/08/07 09:40:52;;;;;;;1.60;1.50;;;;;;;;;;5115772;28;20494;-64
2022/08/07 09:43:23;;;;;;;2.03;1.17;;;;;;;;;;5115617;28;20532;-63
2022/08/07 09:45:58;;;;;;;2.00;1.80;;;;;;;;;;5115510;28;20456;-63
2022/08/07 09:48:35;;;;;;;1.53;1.43;;;;;;;;;;5115761;28;20511;-64
2022/08/07 09:51:11;;;;;;;1.87;1.67;;;;;;;;;;5115572;28;21012;-63
2022/08/07 09:53:42;;;;;;;2.07;1.40;;;;;;;;;;5115337;28;20836;-63
2022/08/07 09:56:21;;;;;;;1.67;1.30;;;;;;;;;;5115093;28;20533;-63
2022/08/07 09:59:01;;;;;;;1.50;1.40;;;;;;;;;;5115187;28;20448;-63
2022/08/07 10:01:41;;;;;;;2.37;1.50;;;;;;;;;;5115326;28;20538;-63
2022/08/07 10:04:22;;;;;;;2.30;1.23;;;;;;;;;;5115209;28;20539;-63
2022/08/07 10:07:05;;;;;;;2.13;1.60;;;;;;;;;;5114972;28;20460;-63
2022/08/07 10:09:39;;;;;;;1.87;1.30;;;;;;;;;;5115058;28;20437;-63
2022/08/07 10:12:11;;;;;;;1.30;1.10;;;;;;;;;;5115251;28;20452;-63
2022/08/07 10:14:45;;;;;;;2.03;1.47;;;;;;;;;;5114925;28;20568;-63
2022/08/07 10:17:19;;;;;;;1.60;1.50;;;;;;;;;;5114861;28;20453;-63
2022/08/07 10:19:51;;;;;;;3.20;1.50;;;;;;;;;;5114854;28;20446;-63
2022/08/07 10:22:29;;;;;;;3.63;1.40;;;;;;;;;;5114906;28;20452;-63
2022/08/07 10:25:04;;;;;;;7.60;2.03;;;;;;;;;;5115011;28;20457;-63
2022/08/07 10:27:42;;;;;;;1.87;1.47;;;;;;;;;;5113719;28;20460;-63
2022/08/07 10:30:10;;;;;;;2.20;1.63;;;;;;;;;;5114769;28;20540;-63
2022/08/07 10:32:48;;;;;;;3.43;1.43;;;;;;;;;;5114417;28;20467;-63
2022/08/07 10:35:29;;;;;;;1.50;1.40;;;;;;;;;;5114649;28;20481;-63
2022/08/07 10:38:03;;;;;;;1.67;1.57;;;;;;;;;;5114549;28;20449;-63
2022/08/07 10:40:34;;;;;;;2.93;1.83;;;;;;;;;;5114413;28;20808;-63
2022/08/07 10:43:02;;;;;;;2.03;1.23;;;;;;;;;;5114001;28;20941;-63
2022/08/07 10:45:32;;;;;;;2.37;2.23;;;;;;;;;;5114476;28;20514;-63
2022/08/07 10:48:04;;;;;;;1.23;1.13;;;;;;;;;;5114248;28;20478;-63
2022/08/07 10:50:41;;;;;;;1.73;1.40;;;;;;;;;;5114161;28;20484;-63
2022/08/07 10:53:11;;;;;;;1.60;1.30;;;;;;;;;;5114108;28;20445;-63
2022/08/07 10:55:42;;;;;;;1.17;1.07;;;;;;;;;;5114508;28;20484;-63
2022/08/07 10:58:16;;;;;;;2.13;1.20;;;;;;;;;;5114212;28;20449;-63
2022/08/07 11:00:51;;;;;;;2.33;2.13;;;;;;;;;;5114180;28;20449;-63
2022/08/07 11:03:26;;;;;;;2.53;1.47;;;;;;;;;;5113956;28;20831;-63
2022/08/07 11:05:59;;;;;;;1.30;1.20;;;;;;;;;;5114005;28;20936;-63
2022/08/07 11:08:30;;;;;;;2.30;1.23;;;;;;;;;;5114155;28;20484;-64
2022/08/07 11:10:59;;;;;;;1.40;1.30;;;;;;;;;;5114041;28;20445;-63
2022/08/07 11:13:31;;;;;;;2.73;1.30;;;;;;;;;;5113844;28;20545;-63
2022/08/07 11:16:03;;;;;;;2.30;1.20;;;;;;;;;;5113603;28;20492;-64
2022/08/07 11:18:34;;;;;;;1.43;1.30;;;;;;;;;;5113921;28;20445;-64
2022/08/07 11:21:04;;;;;;;1.50;1.30;;;;;;;;;;5113779;28;20453;-64
2022/08/07 11:23:36;;;;;;;2.00;1.27;;;;;;;;;;5113490;28;20936;-63
2022/08/07 11:26:07;;;;;;;1.83;1.50;;;;;;;;;;5113654;28;20548;-64
2022/08/07 11:28:35;;;;;;;2.70;1.50;;;;;;;;;;5113498;28;20446;-64
2022/08/07 11:31:04;;;;;;;1.73;1.20;;;;;;;;;;5113899;28;20477;-63
2022/08/07 11:33:35;;;;;;;1.97;1.30;;;;;;;;;;5113606;28;21053;-64
2022/08/07 11:36:10;;;;;;;1.20;1.00;;;;;;;;;;5113540;28;20481;-63
2022/08/07 11:38:40;;;;;;;3.00;1.60;;;;;;;;;;5113430;28;20453;-63
2022/08/07 11:41:13;;;;;;;1.17;1.07;;;;;;;;;;5113775;28;20537;-63
2022/08/07 11:43:44;;;;;;;1.67;1.33;;;;;;;;;;5113514;28;20524;-63
2022/08/07 11:46:25;;;;;;;2.13;1.10;;;;;;;;;;5113557;28;20813;-63
2022/08/07 11:49:01;;;;;;;1.50;1.33;;;;;;;;;;5113157;28;20449;-63
2022/08/07 11:51:43;;;;;;;1.13;1.03;;;;;;;;;;5112978;28;20507;-63
2022/08/07 11:54:16;;;;;;;3.90;1.07;;;;;;;;;;5113208;28;20962;-63
2022/08/07 11:56:48;;;;;;;1.60;1.30;;;;;;;;;;5113239;28;20449;-63
2022/08/07 11:59:29;;;;;;;1.37;1.00;;;;;;;;;;5113175;28;20540;-63
2022/08/07 12:02:00;;;;;;;1.10;1.00;;;;;;;;;;5113141;28;20449;-63
2022/08/07 12:04:43;;;;;;;1.23;1.07;;;;;;;;;;5113086;28;20540;-65
2022/08/07 12:07:15;;;;;;;1.53;1.40;;;;;;;;;;5113101;28;20445;-63
2022/08/07 12:09:46;;;;;;;1.60;1.23;;;;;;;;;;5113042;28;20446;-63
2022/08/07 12:12:14;;;;;;;1.00;0.90;;;;;;;;;;5112805;28;20445;-63
2022/08/07 12:14:47;;;;;;;2.23;1.13;;;;;;;;;;5113088;28;20482;-64
2022/08/07 12:17:15;;;;;;;1.23;1.13;;;;;;;;;;5112999;28;20782;-64
2022/08/07 12:19:45;;;;;;;2.17;1.33;;;;;;;;;;5112865;28;20480;-64
2022/08/07 12:22:17;;;;;;;2.13;1.20;;;;;;;;;;5113027;28;20857;-64
2022/08/07 12:27:30;;;;;;;1.23;1.10;;;;;;;;;;5112368;28;20446;-62
2022/08/07 12:30:00;;;;;;;1.13;1.00;;;;;;;;;;5112857;28;20450;-64
2022/08/07 12:32:30;;;;;;;1.10;1.00;;;;;;;;;;5112717;28;20540;-62
2022/08/07 12:34:58;;;;;;;2.87;1.10;;;;;;;;;;5112637;28;20481;-64
2022/08/07 12:37:27;;;;;;;2.50;1.60;;;;;;;;;;5112646;28;20473;-64
2022/08/07 12:39:55;;;;;;;1.83;1.27;;;;;;;;;;5112713;28;20963;-65
2022/08/07 12:42:25;;;;;;;1.20;1.10;;;;;;;;;;5112578;28;20452;-62
2022/08/07 12:44:52;;;;;;;2.10;1.13;;;;;;;;;;5112552;28;20456;-62
2022/08/07 12:47:25;;;;;;;1.30;1.20;;;;;;;;;;5112347;28;20470;-62
2022/08/07 12:49:57;;;;;;;1.53;1.10;;;;;;;;;;5112420;28;20947;-62
2022/08/07 12:52:29;;;;;;;1.77;1.20;;;;;;;;;;5115869;28;20816;-63
2022/08/07 12:54:59;;;;;;;1.20;1.10;;;;;;;;;;5116212;28;20469;-62
2022/08/07 12:57:29;;;;;;;1.50;1.00;;;;;;;;;;5116487;28;20790;-62
2022/08/07 12:59:56;;;;;;;1.77;1.17;;;;;;;;;;5116300;28;21000;-62
2022/08/07 13:02:32;;;;;;;1.57;1.07;;;;;;;;;;5116189;28;20541;-62
2022/08/07 13:05:06;;;;;;;2.97;1.10;;;;;;;;;;5116416;28;20952;-62
2022/08/07 13:07:47;;;;;;;2.77;1.33;;;;;;;;;;5116315;28;20456;-62
2022/08/07 13:10:23;;;;;;;2.73;1.50;;;;;;;;;;5113050;28;20778;-62
2022/08/07 13:12:54;;;;;;;2.93;1.53;;;;;;;;;;5115974;28;20449;-62
2022/08/07 13:15:27;;;;;;;2.80;1.20;;;;;;;;;;5115988;28;20479;-65
2022/08/07 13:17:57;;;;;;;2.23;1.23;;;;;;;;;;5116143;28;20483;-62
2022/08/07 13:20:31;;;;;;;2.13;1.30;;;;;;;;;;5115951;28;20445;-62
2022/08/07 13:23:01;;;;;;;1.50;1.03;;;;;;;;;;5115831;28;20481;-62
2022/08/07 13:25:31;;;;;;;1.73;1.17;;;;;;;;;;5115696;28;20452;-62
2022/08/07 13:28:01;;;;;;;1.13;0.93;;;;;;;;;;5115998;28;20449;-62
2022/08/07 13:30:29;;;;;;;1.40;1.30;;;;;;;;;;5115922;28;20446;-62
2022/08/07 13:32:59;;;;;;;2.60;1.30;;;;;;;;;;5115596;28;20496;-62
2022/08/07 13:35:30;;;;;;;6.90;1.30;;;;;;;;;;5115669;28;20462;-62
2022/08/07 13:37:59;;;;;;;1.53;1.20;;;;;;;;;;5115700;28;20474;-62
2022/08/07 13:40:28;;;;;;;1.60;1.30;;;;;;;;;;5115659;28;20452;-62
2022/08/07 13:43:02;;;;;;;2.33;1.30;;;;;;;;;;5115547;28;20445;-62
2022/08/07 13:45:29;;;;;;;1.50;1.40;;;;;;;;;;5115567;28;20445;-63
2022/08/07 13:47:57;;;;;;;2.00;1.10;;;;;;;;;;5115324;28;20471;-63
2022/08/07 13:50:25;;;;;;;4.10;1.07;;;;;;;;;;5115298;28;20560;-63
2022/08/07 13:52:53;;;;;;;1.93;1.20;;;;;;;;;;5115354;28;20537;-63
2022/08/07 13:55:21;;;;;;;3.00;1.17;;;;;;;;;;5115310;28;20491;-63
2022/08/07 13:57:50;;;;;;;1.73;1.10;;;;;;;;;;5115300;28;20450;-63
2022/08/07 14:00:19;;;;;;;2.53;1.20;;;;;;;;;;5115282;28;20441;-62
2022/08/07 14:02:50;;;;;;;1.00;0.90;;;;;;;;;;5114992;28;20446;-63
2022/08/07 14:05:21;;;;;;;1.50;1.00;;;;;;;;;;5115352;28;20442;-64
2022/08/07 14:07:49;;;;;;;1.40;1.23;;;;;;;;;;5115345;28;20842;-63
2022/08/07 14:10:17;;;;;;;1.10;1.00;;;;;;;;;;5115091;28;20609;-63
2022/08/07 14:12:47;;;;;;;1.23;1.13;;;;;;;;;;5114885;28;20532;-63
2022/08/07 14:15:20;;;;;;;1.60;1.20;;;;;;;;;;5114931;28;20465;-63
2022/08/07 14:17:48;;;;;;;3.83;1.27;;;;;;;;;;5115118;28;20533;-64
2022/08/07 14:20:18;;;;;;;1.77;0.97;;;;;;;;;;5115054;28;20451;-63
2022/08/07 14:22:47;;;;;;;1.30;1.20;;;;;;;;;;5114886;28;20449;-63
2022/08/07 14:25:16;;;;;;;1.27;1.10;;;;;;;;;;5114701;28;20508;-63
2022/08/07 14:27:45;;;;;;;1.23;1.13;;;;;;;;;;5114566;28;20441;-63
2022/08/07 14:30:14;;;;;;;1.37;1.20;;;;;;;;;;5114721;28;20445;-63
2022/08/07 14:32:44;;;;;;;1.20;1.10;;;;;;;;;;5114599;28;20446;-63
2022/08/07 14:35:12;;;;;;;1.20;1.10;;;;;;;;;;5114539;28;20499;-63
2022/08/07 14:37:40;;;;;;;1.23;1.10;;;;;;;;;;5114409;28;20945;-63
2022/08/07 14:40:08;;;;;;;1.57;1.47;;;;;;;;;;5114391;28;20449;-63
2022/08/07 14:42:35;;;;;;;1.50;1.40;;;;;;;;;;5114379;28;20545;-63
2022/08/07 14:45:04;;;;;;;2.10;1.20;;;;;;;;;;5114700;28;20482;-63
2022/08/07 14:47:33;;;;;;;1.80;1.33;;;;;;;;;;5114236;28;20573;-63
2022/08/07 14:50:05;;;;;;;1.47;1.37;;;;;;;;;;5114324;28;20450;-63
2022/08/07 14:52:34;;;;;;;2.30;1.27;;;;;;;;;;5114217;28;20525;-63
2022/08/07 14:55:02;;;;;;;2.50;1.30;;;;;;;;;;5114021;28;20448;-63
2022/08/07 14:57:31;;;;;;;1.27;1.17;;;;;;;;;;5114217;28;20532;-63
2022/08/07 14:59:58;;;;;;;2.20;1.17;;;;;;;;;;5114256;28;20808;-63
2022/08/07 15:02:27;;;;;;;2.67;1.43;;;;;;;;;;5113992;28;20446;-63
2022/08/07 15:04:54;;;;;;;1.77;1.30;;;;;;;;;;5113894;28;20456;-63